Time;durP1;ratioP1;P1;durP2;ratioP2;P2;SDS_P1;SDS_P2;PMS_P1;PMS_P2;Temp;Humidity;BMP_temperature;BMP_pressure;BME280_temperature;BME280_humidity;BME280_pressure;Samples;Min_cycle;Max_cycle;Signal;HPM_P1;HPM_P2
2021/08/10 00:02:04;;;;;;;11.38;8.05;;;;;;;14.68;100.00;101460.69;3577337;40;20045;-60
2021/08/10 00:04:31;;;;;;;16.55;9.88;;;;;;;14.62;100.00;101464.00;3576602;40;20382;-60
2021/08/10 00:06:58;;;;;;;13.55;9.65;;;;;;;14.58;100.00;101459.84;3575697;40;20033;-61
2021/08/10 00:09:24;;;;;;;14.52;8.98;;;;;;;14.57;100.00;101463.53;3577406;40;20084;-60
2021/08/10 00:11:51;;;;;;;13.52;8.98;;;;;;;14.54;100.00;101458.41;3576913;40;20033;-61
2021/08/10 00:14:17;;;;;;;12.98;9.90;;;;;;;14.51;100.00;101456.00;3575702;40;20303;-60
2021/08/10 00:16:44;;;;;;;14.55;9.85;;;;;;;14.46;100.00;101456.44;3576555;40;19943;-61
2021/08/10 00:19:10;;;;;;;14.75;9.80;;;;;;;14.45;100.00;101454.72;3576594;40;20025;-60
2021/08/10 00:21:38;;;;;;;14.27;9.80;;;;;;;14.44;100.00;101455.75;3576915;40;20047;-60
2021/08/10 00:24:05;;;;;;;14.52;10.00;;;;;;;14.41;100.00;101456.03;3665301;22;20048;-61
2021/08/10 00:26:32;;;;;;;15.63;9.85;;;;;;;14.39;100.00;101457.19;3591096;40;20048;-60
2021/08/10 00:28:58;;;;;;;14.70;9.88;;;;;;;14.39;100.00;101462.59;3591959;39;20039;-61
2021/08/10 00:31:25;;;;;;;13.27;8.63;;;;;;;14.37;100.00;101458.19;3591153;40;20037;-61
2021/08/10 00:33:51;;;;;;;13.40;9.43;;;;;;;14.39;100.00;101470.72;3593829;39;20031;-61
2021/08/10 00:36:18;;;;;;;16.92;9.63;;;;;;;14.36;100.00;101463.75;3592072;39;20064;-61
2021/08/10 00:38:45;;;;;;;15.82;9.75;;;;;;;14.33;100.00;101459.47;3592246;40;20041;-61
2021/08/10 00:41:12;;;;;;;15.68;10.05;;;;;;;14.35;100.00;101452.06;3590631;39;20052;-61
2021/08/10 00:43:40;;;;;;;14.75;9.45;;;;;;;14.37;100.00;101444.63;3589745;40;20036;-60
2021/08/10 00:46:09;;;;;;;16.90;10.85;;;;;;;14.36;100.00;101452.91;3592594;39;20029;-61
2021/08/10 00:48:36;;;;;;;12.68;9.95;;;;;;;14.37;100.00;101447.34;3591544;40;20037;-61
2021/08/10 00:51:05;;;;;;;17.25;9.20;;;;;;;14.39;100.00;101447.19;3591448;39;20075;-61
2021/08/10 00:53:31;;;;;;;15.88;9.07;;;;;;;14.35;100.00;101437.66;3590809;39;20396;-61
2021/08/10 00:55:59;;;;;;;18.20;9.88;;;;;;;14.32;100.00;101441.50;3589616;39;20056;-61
2021/08/10 00:58:26;;;;;;;14.40;9.35;;;;;;;14.31;100.00;101437.09;3591868;39;20062;-60
2021/08/10 01:00:52;;;;;;;14.35;10.23;;;;;;;14.34;100.00;101444.09;3592775;39;20031;-61
2021/08/10 01:03:19;;;;;;;17.63;10.07;;;;;;;14.36;100.00;101448.34;3593952;40;20040;-61
2021/08/10 01:05:47;;;;;;;15.90;10.43;;;;;;;14.42;100.00;101452.31;3594502;39;20052;-61
2021/08/10 01:08:22;;;;;;;15.80;9.75;;;;;;;14.42;100.00;101452.31;3593995;39;20137;-61
2021/08/10 01:10:57;;;;;;;19.08;9.23;;;;;;;14.51;100.00;101442.47;3592782;40;20031;-61
2021/08/10 01:13:34;;;;;;;16.83;10.68;;;;;;;14.49;100.00;101452.59;3593752;40;20032;-61
2021/08/10 01:16:10;;;;;;;15.15;10.05;;;;;;;14.52;100.00;101446.88;3593907;39;20420;-61
2021/08/10 01:18:42;;;;;;;16.27;10.68;;;;;;;14.53;100.00;101438.59;3594951;40;20069;-61
2021/08/10 01:21:16;;;;;;;17.50;9.88;;;;;;;14.53;100.00;101449.44;3593638;39;20044;-61
2021/08/10 01:23:45;;;;;;;17.17;10.55;;;;;;;14.51;100.00;101446.00;3596205;39;20032;-61
2021/08/10 01:26:25;;;;;;;16.10;10.50;;;;;;;14.53;100.00;101448.56;3591258;39;20024;-61
2021/08/10 01:29:04;;;;;;;12.57;8.75;;;;;;;14.45;100.00;101437.63;3592820;39;20064;-61
2021/08/10 01:31:36;;;;;;;16.58;10.27;;;;;;;14.49;100.00;101437.19;3593156;39;20129;-61
2021/08/10 01:34:11;;;;;;;14.90;9.55;;;;;;;14.55;100.00;101436.59;3591377;40;20040;-62
2021/08/10 01:36:40;;;;;;;14.82;9.82;;;;;;;14.61;100.00;101432.47;3596325;39;20051;-61
2021/08/10 01:39:08;;;;;;;12.33;8.93;;;;;;;14.62;100.00;101434.19;3594133;39;20040;-61
2021/08/10 01:41:35;;;;;;;15.55;9.15;;;;;;;14.68;100.00;101425.47;3596998;39;20074;-61
2021/08/10 01:44:03;;;;;;;12.55;9.15;;;;;;;14.64;100.00;101418.63;3590444;39;20292;-61
2021/08/10 01:46:30;;;;;;;15.68;8.23;;;;;;;14.67;100.00;101428.31;3592290;39;20054;-62
2021/08/10 01:48:59;;;;;;;12.05;8.80;;;;;;;14.64;100.00;101423.19;3589242;40;20272;-62
2021/08/10 01:51:28;;;;;;;13.18;9.45;;;;;;;14.68;100.00;101430.03;3592335;39;20416;-61
2021/08/10 01:53:57;;;;;;;14.88;9.25;;;;;;;14.63;100.00;101422.31;3592254;39;20306;-62
2021/08/10 01:56:24;;;;;;;13.95;9.23;;;;;;;14.67;100.00;101423.75;3590052;39;20405;-62
2021/08/10 01:58:52;;;;;;;15.65;9.43;;;;;;;14.64;100.00;101432.16;3594553;39;20407;-61
2021/08/10 02:01:20;;;;;;;14.57;8.82;;;;;;;14.67;100.00;101434.59;3593732;39;20292;-62
2021/08/10 02:03:46;;;;;;;15.68;9.40;;;;;;;14.63;100.00;101426.91;3593926;39;20042;-61
2021/08/10 02:06:15;;;;;;;14.90;9.75;;;;;;;14.59;100.00;101433.59;3591054;39;20048;-61
2021/08/10 02:08:42;;;;;;;12.73;9.13;;;;;;;14.61;100.00;101429.75;3594113;39;20355;-62
2021/08/10 02:11:11;;;;;;;13.98;8.85;;;;;;;14.57;100.00;101441.84;3589813;40;20037;-62
2021/08/10 02:13:38;;;;;;;14.50;9.52;;;;;;;14.50;100.00;101438.03;3593922;39;20117;-61
2021/08/10 02:16:08;;;;;;;15.00;9.80;;;;;;;14.52;100.00;101438.75;3591390;39;20109;-61
2021/08/10 02:18:35;;;;;;;13.75;9.02;;;;;;;14.52;100.00;101441.47;3592870;39;20032;-61
2021/08/10 02:21:03;;;;;;;12.35;9.20;;;;;;;14.53;100.00;101448.56;3595639;39;20055;-61
2021/08/10 02:23:33;;;;;;;15.55;10.75;;;;;;;14.45;100.00;101453.88;3594679;40;20034;-61
2021/08/10 02:25:59;;;;;;;;;;;;;;;14.42;100.00;101446.06;3590761;39;20079;-62
2021/08/10 02:28:28;;;;;;;16.23;11.07;;;;;;;14.44;100.00;101457.59;3592556;39;20021;-61
2021/08/10 02:30:57;;;;;;;15.77;10.63;;;;;;;14.39;100.00;101458.03;3592021;39;20114;-61
2021/08/10 02:33:25;;;;;;;16.33;10.40;;;;;;;14.36;100.00;101452.91;3590325;39;20037;-61
2021/08/10 02:35:56;;;;;;;17.23;11.55;;;;;;;14.36;100.00;101467.28;3594623;39;20398;-61
2021/08/10 02:38:25;;;;;;;13.18;10.77;;;;;;;14.41;100.00;101468.72;3594282;39;20450;-62
2021/08/10 02:43:21;;;;;;;17.35;10.65;;;;;;;14.37;100.00;101460.88;3601024;22;20390;-61
2021/08/10 02:45:48;;;;;;;18.23;10.90;;;;;;;14.43;100.00;101455.88;3594817;39;20052;-61
2021/08/10 02:48:14;;;;;;;17.45;10.77;;;;;;;14.36;100.00;101459.16;3593459;39;20024;-61
2021/08/10 02:50:41;;;;;;;17.60;10.90;;;;;;;14.39;100.00;101451.78;3592470;39;20056;-61
2021/08/10 02:53:07;;;;;;;17.85;10.75;;;;;;;14.39;100.00;101441.78;3592725;39;20066;-61
2021/08/10 02:55:35;;;;;;;19.05;11.68;;;;;;;14.39;100.00;101443.66;3591895;39;20043;-62
2021/08/10 02:58:07;;;;;;;17.35;10.85;;;;;;;14.35;100.00;101438.53;3592150;39;20040;-61
2021/08/10 03:03:42;;;;;;;14.77;9.45;;;;;;;14.39;100.00;101430.94;3625551;22;20071;-61
2021/08/10 03:06:11;;;;;;;14.63;9.10;;;;;;;14.44;100.00;101433.22;3608168;39;20032;-61
2021/08/10 03:08:42;;;;;;;14.80;9.02;;;;;;;14.50;100.00;101425.38;3612710;39;20123;-62
2021/08/10 03:11:10;;;;;;;15.00;9.52;;;;;;;14.53;100.00;101421.47;3612018;39;20076;-61
2021/08/10 03:13:39;;;;;;;12.52;8.45;;;;;;;14.53;100.00;101424.19;3612918;39;20398;-61
2021/08/10 03:16:07;;;;;;;14.85;8.60;;;;;;;14.56;100.00;101413.09;3611667;39;20023;-61
2021/08/10 03:18:35;;;;;;;10.82;8.13;;;;;;;14.52;100.00;101417.94;3608849;39;20032;-61
2021/08/10 03:21:04;;;;;;;12.15;8.05;;;;;;;14.54;100.00;101409.66;3611530;39;20043;-61
2021/08/10 03:23:34;;;;;;;14.37;8.63;;;;;;;14.46;100.00;101410.41;3612655;39;20052;-61
2021/08/10 03:26:01;;;;;;;12.57;8.07;;;;;;;14.43;100.00;101415.25;3609764;39;20357;-61
2021/08/10 03:28:29;;;;;;;13.52;7.95;;;;;;;14.44;100.00;101406.13;3605787;39;20053;-61
2021/08/10 03:30:57;;;;;;;14.73;7.88;;;;;;;14.44;100.00;101416.97;3612576;39;20030;-61
2021/08/10 03:33:26;;;;;;;11.40;8.75;;;;;;;14.39;100.00;101413.84;3610938;39;20031;-60
2021/08/10 03:35:52;;;;;;;;;;;;;;;14.32;100.00;101408.16;3606433;39;20034;-61
2021/08/10 03:38:21;;;;;;;15.73;8.55;;;;;;;14.30;100.00;101421.84;3610703;39;19936;-61
2021/08/10 03:40:48;;;;;;;13.68;8.85;;;;;;;14.30;100.00;101421.00;3615223;39;20037;-61
2021/08/10 03:43:16;;;;;;;15.65;9.95;;;;;;;14.28;100.00;101423.88;3615131;39;20038;-61
2021/08/10 03:45:43;;;;;;;17.67;8.25;;;;;;;14.31;100.00;101428.97;3608856;39;20370;-62
2021/08/10 03:48:11;;;;;;;15.20;8.77;;;;;;;14.32;100.00;101425.25;3611741;39;20035;-61
2021/08/10 03:50:39;;;;;;;15.63;8.95;;;;;;;14.32;100.00;101433.38;3612512;39;20032;-61
2021/08/10 03:53:06;;;;;;;13.70;8.73;;;;;;;14.40;100.00;101432.66;3611683;39;20116;-61
2021/08/10 03:55:35;;;;;;;14.32;8.63;;;;;;;14.45;100.00;101430.34;3610437;39;20049;-61
2021/08/10 03:58:05;;;;;;;16.55;8.25;;;;;;;14.41;100.00;101438.94;3611220;39;20039;-61
2021/08/10 04:00:36;;;;;;;14.18;8.00;;;;;;;14.38;100.00;101434.66;3610479;39;20386;-61
2021/08/10 04:03:05;;;;;;;13.23;7.60;;;;;;;14.39;100.00;101440.94;3614701;39;20060;-61
2021/08/10 04:05:33;;;;;;;11.90;8.35;;;;;;;14.40;100.00;101443.50;3613267;39;20064;-62
2021/08/10 04:08:00;;;;;;;16.85;8.43;;;;;;;14.41;100.00;101439.78;3612339;39;20051;-62
2021/08/10 04:10:27;;;;;;;10.10;7.70;;;;;;;14.45;100.00;101429.50;3612665;39;20051;-61
2021/08/10 04:12:55;;;;;;;11.98;7.88;;;;;;;14.47;100.00;101431.06;3613583;39;20047;-61
2021/08/10 04:15:23;;;;;;;12.13;8.02;;;;;;;14.51;100.00;101434.34;3610536;39;20341;-61
2021/08/10 04:17:50;;;;;;;16.13;8.43;;;;;;;14.49;100.00;101441.75;3614797;39;20034;-60
2021/08/10 04:20:18;;;;;;;12.30;7.97;;;;;;;14.49;100.00;101436.34;3609244;39;20023;-61
2021/08/10 04:22:45;;;;;;;12.02;7.63;;;;;;;14.46;100.00;101442.06;3610865;39;20039;-60
2021/08/10 04:25:11;;;;;;;13.40;8.75;;;;;;;14.48;100.00;101440.03;3610462;39;20042;-61
2021/08/10 04:27:38;;;;;;;12.80;8.25;;;;;;;14.51;100.00;101434.34;3615932;39;20039;-61
2021/08/10 04:30:06;;;;;;;16.63;8.88;;;;;;;14.49;100.00;101436.34;3612065;39;20032;-60
2021/08/10 04:32:33;;;;;;;14.93;8.48;;;;;;;14.47;100.00;101447.34;3652867;22;20056;-60
2021/08/10 04:35:00;;;;;;;14.93;8.65;;;;;;;14.44;100.00;101434.09;3608670;39;20034;-61
2021/08/10 04:37:27;;;;;;;17.42;9.82;;;;;;;14.45;100.00;101433.06;3610737;39;20047;-61
2021/08/10 04:39:53;;;;;;;17.77;9.40;;;;;;;14.43;100.00;101432.38;3613457;39;20027;-61
2021/08/10 04:42:20;;;;;;;16.20;9.65;;;;;;;14.45;100.00;101437.63;3613817;39;20053;-61
2021/08/10 04:44:46;;;;;;;16.85;8.88;;;;;;;14.43;100.00;101434.19;3614211;39;20281;-61
2021/08/10 04:47:14;;;;;;;12.15;8.77;;;;;;;14.40;100.00;101440.78;3614244;39;20032;-61
2021/08/10 04:49:40;;;;;;;15.02;9.65;;;;;;;14.37;100.00;101444.63;3614276;39;20055;-61
2021/08/10 04:52:07;;;;;;;18.60;9.40;;;;;;;14.42;100.00;101443.34;3613374;39;20028;-61
2021/08/10 04:54:34;;;;;;;15.85;9.63;;;;;;;14.41;100.00;101449.75;3612140;39;20037;-61
2021/08/10 04:57:01;;;;;;;18.08;10.05;;;;;;;14.36;100.00;101448.34;3612136;39;20028;-61
2021/08/10 04:59:27;;;;;;;17.13;10.70;;;;;;;14.30;100.00;101440.81;3614883;39;20047;-61
2021/08/10 05:01:54;;;;;;;18.23;11.02;;;;;;;14.27;100.00;101442.97;3614015;39;20035;-61
2021/08/10 05:04:21;;;;;;;15.13;10.20;;;;;;;14.23;100.00;101450.50;3611578;39;20371;-61
2021/08/10 05:06:49;;;;;;;16.00;9.90;;;;;;;14.19;100.00;101452.66;3616703;39;20040;-61
2021/08/10 05:09:15;;;;;;;16.00;10.70;;;;;;;14.16;100.00;101447.53;3612792;39;20075;-61
2021/08/10 05:11:41;;;;;;;16.83;10.85;;;;;;;14.17;100.00;101448.38;3613986;39;20039;-61
2021/08/10 05:14:08;;;;;;;23.60;11.35;;;;;;;14.16;100.00;101454.78;3612641;39;20041;-61
2021/08/10 05:16:56;;;;;;;19.15;11.23;;;;;;;14.14;100.00;101448.69;3636844;22;20082;-61
2021/08/10 05:19:23;;;;;;;18.30;11.05;;;;;;;14.19;100.00;101447.25;3570893;40;20025;-61
2021/08/10 05:21:50;;;;;;;20.20;11.88;;;;;;;14.17;100.00;101459.22;3574419;40;20038;-61
2021/08/10 05:24:16;;;;;;;19.58;11.23;;;;;;;14.12;100.00;101456.06;3569991;40;20036;-62
2021/08/10 05:26:43;;;;;;;20.13;12.25;;;;;;;14.13;100.00;101457.78;3573972;40;20055;-61
2021/08/10 05:29:09;;;;;;;18.77;12.18;;;;;;;14.16;100.00;101463.78;3574595;40;20033;-61
2021/08/10 05:31:36;;;;;;;16.77;11.23;;;;;;;14.17;100.00;101465.47;3573244;40;20108;-61
2021/08/10 05:34:02;;;;;;;21.77;11.65;;;;;;;14.26;100.00;101466.47;3569592;40;20034;-61
2021/08/10 05:36:30;;;;;;;17.20;10.32;;;;;;;14.34;100.00;101469.31;3569348;40;20101;-61
2021/08/10 05:38:56;;;;;;;21.48;11.15;;;;;;;14.37;100.00;101471.72;3568504;40;20041;-61
2021/08/10 05:41:24;;;;;;;16.80;10.23;;;;;;;14.36;100.00;101475.41;3572703;40;20304;-61
2021/08/10 05:43:51;;;;;;;16.30;11.02;;;;;;;14.41;100.00;101483.09;3574008;40;20409;-61
2021/08/10 05:46:17;;;;;;;17.70;10.57;;;;;;;14.44;100.00;101472.00;3574801;40;20044;-61
2021/08/10 05:48:44;;;;;;;17.98;10.38;;;;;;;14.49;100.00;101479.69;3576847;40;20060;-62
2021/08/10 05:51:10;;;;;;;18.15;11.20;;;;;;;14.49;100.00;101468.84;3574820;40;20055;-61
2021/08/10 05:53:38;;;;;;;17.60;10.70;;;;;;;14.64;100.00;101474.69;3573355;40;20070;-62
2021/08/10 05:56:05;;;;;;;16.77;10.27;;;;;;;14.77;100.00;101475.19;3574106;40;20400;-61
2021/08/10 05:58:32;;;;;;;13.73;9.68;;;;;;;14.71;100.00;101482.06;3573552;40;20059;-61
2021/08/10 06:00:59;;;;;;;20.23;10.32;;;;;;;14.77;100.00;101482.47;3573539;40;20155;-61
2021/08/10 06:03:26;;;;;;;19.42;10.75;;;;;;;14.78;100.00;101484.16;3570819;40;20025;-62
2021/08/10 06:05:52;;;;;;;18.90;9.90;;;;;;;14.78;100.00;101476.91;3573207;40;20041;-62
2021/08/10 06:08:18;;;;;;;16.98;10.40;;;;;;;14.84;100.00;101484.44;3570816;40;20381;-61
2021/08/10 06:10:46;;;;;;;17.00;10.30;;;;;;;14.91;100.00;101492.81;3575744;40;20041;-61
2021/08/10 06:13:12;;;;;;;20.40;10.00;;;;;;;14.97;100.00;101475.09;3572763;40;20409;-62
2021/08/10 06:15:39;;;;;;;16.52;10.75;;;;;;;15.02;100.00;101481.78;3572198;40;20057;-61
2021/08/10 06:18:06;;;;;;;17.48;10.27;;;;;;;15.02;100.00;101484.50;3575697;40;20093;-61
2021/08/10 06:20:32;;;;;;;14.60;9.20;;;;;;;15.26;100.00;101480.38;3572850;40;20093;-62
2021/08/10 06:23:00;;;;;;;18.00;9.75;;;;;;;15.42;100.00;101472.41;3571353;40;20041;-61
2021/08/10 06:25:27;;;;;;;14.45;9.65;;;;;;;15.46;100.00;101480.25;3570255;40;20111;-62
2021/08/10 06:27:54;;;;;;;18.73;9.48;;;;;;;15.65;100.00;101471.13;3571558;40;20045;-62
2021/08/10 06:30:21;;;;;;;16.92;9.45;;;;;;;15.40;100.00;101462.75;3569187;40;20058;-61
2021/08/10 06:32:48;;;;;;;15.82;9.85;;;;;;;15.45;100.00;101481.28;3574005;40;20067;-61
2021/08/10 06:35:14;;;;;;;16.63;9.45;;;;;;;15.68;100.00;101479.81;3569021;40;20038;-61
2021/08/10 06:37:40;;;;;;;26.08;9.60;;;;;;;15.64;100.00;101475.69;3568396;40;20036;-61
2021/08/10 06:40:08;;;;;;;17.33;9.75;;;;;;;15.87;100.00;101480.69;3571324;40;20409;-61
2021/08/10 06:42:34;;;;;;;17.42;9.45;;;;;;;15.90;100.00;101486.69;3571492;40;20049;-61
2021/08/10 06:45:02;;;;;;;18.13;10.50;;;;;;;15.90;100.00;101480.38;3573133;40;20032;-62
2021/08/10 06:47:29;;;;;;;17.42;9.65;;;;;;;15.98;100.00;101479.63;3570878;40;20038;-61
2021/08/10 06:49:55;;;;;;;14.25;9.40;;;;;;;16.14;100.00;101479.75;3571550;40;20077;-61
2021/08/10 06:52:22;;;;;;;18.77;9.57;;;;;;;16.04;100.00;101484.41;3569923;40;20069;-62
2021/08/10 06:54:49;;;;;;;14.88;8.80;;;;;;;16.23;100.00;101473.34;3569824;40;20392;-62
2021/08/10 06:57:15;;;;;;;15.40;9.43;;;;;;;16.10;100.00;101481.91;3571698;40;20303;-61
2021/08/10 06:59:41;;;;;;;15.43;10.23;;;;;;;15.94;100.00;101479.94;3569557;40;20423;-62
2021/08/10 07:02:10;;;;;;;15.57;8.70;;;;;;;16.16;100.00;101480.44;3568686;40;20037;-62
2021/08/10 07:04:36;;;;;;;18.05;10.13;;;;;;;16.29;100.00;101477.31;3569956;40;20077;-61
2021/08/10 07:07:03;;;;;;;15.55;9.63;;;;;;;16.24;100.00;101476.94;3573223;40;20280;-62
2021/08/10 07:09:30;;;;;;;15.32;9.95;;;;;;;16.38;100.00;101489.94;3572002;40;20097;-61
2021/08/10 07:11:56;;;;;;;15.45;9.50;;;;;;;16.42;100.00;101496.75;3572326;40;20041;-62
2021/08/10 07:14:23;;;;;;;15.70;9.45;;;;;;;16.46;100.00;101498.16;3569110;40;20142;-62
2021/08/10 07:16:50;;;;;;;15.00;9.48;;;;;;;16.60;100.00;101485.00;3571355;40;20057;-61
2021/08/10 07:19:18;;;;;;;15.00;9.75;;;;;;;16.58;100.00;101478.88;3572278;40;20037;-61
2021/08/10 07:21:45;;;;;;;16.60;9.23;;;;;;;16.60;100.00;101482.28;3572395;40;20076;-61
2021/08/10 07:24:11;;;;;;;15.25;8.88;;;;;;;16.76;100.00;101487.78;3570149;40;20048;-61
2021/08/10 07:26:38;;;;;;;16.10;8.30;;;;;;;16.90;100.00;101494.53;3571473;40;20293;-62
2021/08/10 07:29:04;;;;;;;12.75;8.50;;;;;;;16.81;100.00;101485.47;3569575;40;20537;-61
2021/08/10 07:31:31;;;;;;;17.48;9.02;;;;;;;16.70;100.00;101483.00;3570947;40;20052;-61
2021/08/10 07:33:57;;;;;;;15.30;8.38;;;;;;;16.87;100.00;101491.25;3568603;40;20074;-62
2021/08/10 07:36:25;;;;;;;17.13;8.32;;;;;;;17.13;100.00;101483.91;3570223;40;20051;-61
2021/08/10 07:38:52;;;;;;;19.83;8.40;;;;;;;17.15;100.00;101481.91;3568221;40;20402;-62
2021/08/10 07:41:18;;;;;;;12.57;7.82;;;;;;;17.25;100.00;101486.34;3568803;40;20045;-62
2021/08/10 07:43:45;;;;;;;14.75;7.90;;;;;;;17.46;100.00;101494.06;3573400;40;20048;-61
2021/08/10 07:46:11;;;;;;;14.85;8.13;;;;;;;17.46;100.00;101494.94;3573664;40;20037;-59
2021/08/10 07:48:37;;;;;;;15.80;7.82;;;;;;;17.52;100.00;101488.81;3570095;40;20045;-61
2021/08/10 07:51:04;;;;;;;15.10;7.93;;;;;;;17.55;100.00;101489.47;3569950;40;20037;-61
2021/08/10 07:56:06;;;;;;;15.95;7.78;;;;;;;17.24;100.00;101488.22;3630254;22;20055;-61
2021/08/10 07:58:33;;;;;;;19.70;7.93;;;;;;;17.59;100.00;101493.59;3592297;39;20031;-61
2021/08/10 08:00:59;;;;;;;14.55;7.60;;;;;;;17.69;100.00;101492.41;3589470;39;20310;-61
2021/08/10 08:03:26;;;;;;;17.08;8.07;;;;;;;17.66;100.00;101495.47;3589762;39;20264;-61
2021/08/10 08:05:52;;;;;;;14.10;8.48;;;;;;;17.61;100.00;101486.97;3587647;39;20414;-61
2021/08/10 08:08:19;;;;;;;16.63;7.90;;;;;;;17.85;100.00;101483.41;3589254;39;20380;-61
2021/08/10 08:10:46;;;;;;;13.95;7.63;;;;;;;17.62;100.00;101487.81;3599447;39;20035;-61
2021/08/10 08:13:13;;;;;;;16.65;7.18;;;;;;;17.80;100.00;101483.06;3592876;39;20039;-62
2021/08/10 08:15:40;;;;;;;13.57;7.55;;;;;;;18.27;100.00;101488.88;3588458;39;20037;-61
2021/08/10 08:18:06;;;;;;;15.05;7.35;;;;;;;18.36;100.00;101485.16;3587104;39;20044;-60
2021/08/10 08:20:33;;;;;;;14.88;7.25;;;;;;;18.71;100.00;101483.88;3593923;39;20052;-61
2021/08/10 08:23:00;;;;;;;14.75;7.30;;;;;;;18.83;100.00;101484.38;3597430;39;20030;-61
2021/08/10 08:25:26;;;;;;;13.32;7.53;;;;;;;18.20;100.00;101481.41;3592393;39;20045;-62
2021/08/10 08:27:53;;;;;;;12.95;7.25;;;;;;;18.72;100.00;101476.56;3595014;39;20103;-61
2021/08/10 08:30:21;;;;;;;13.30;7.43;;;;;;;18.65;100.00;101481.00;3591125;39;20033;-61
2021/08/10 08:32:47;;;;;;;11.77;6.50;;;;;;;18.74;100.00;101482.66;3592148;39;20037;-62
2021/08/10 08:35:14;;;;;;;16.08;7.18;;;;;;;18.63;100.00;101485.78;3590376;39;20047;-64
2021/08/10 08:37:41;;;;;;;13.98;6.60;;;;;;;18.78;100.00;101489.47;3652837;22;20070;-63
2021/08/10 08:40:08;;;;;;;14.10;7.45;;;;;;;18.59;100.00;101478.97;3588850;39;20113;-63
2021/08/10 08:42:35;;;;;;;12.32;6.85;;;;;;;18.62;100.00;101479.47;3588305;39;20380;-62
2021/08/10 08:45:02;;;;;;;18.23;7.60;;;;;;;18.29;100.00;101487.72;3589645;39;20044;-62
2021/08/10 08:47:30;;;;;;;13.77;7.28;;;;;;;18.09;100.00;101487.19;3591413;39;20028;-62
2021/08/10 08:49:57;;;;;;;11.73;6.93;;;;;;;18.14;100.00;101490.28;3591401;39;20052;-62
2021/08/10 08:52:24;;;;;;;12.73;6.85;;;;;;;18.15;100.00;101491.13;3590419;39;20050;-62
2021/08/10 08:54:51;;;;;;;14.80;7.70;;;;;;;18.12;100.00;101484.13;3589888;39;20054;-63
2021/08/10 08:57:17;;;;;;;9.55;6.80;;;;;;;18.59;100.00;101489.88;3590053;39;20049;-61
2021/08/10 08:59:44;;;;;;;9.90;6.45;;;;;;;18.94;100.00;101483.16;3588488;39;20047;-61
2021/08/10 09:02:16;;;;;;;11.48;5.97;;;;;;;19.12;100.00;101473.88;3591994;39;20076;-61
2021/08/10 09:04:44;;;;;;;10.65;5.90;;;;;;;19.12;100.00;101477.44;3587908;39;20024;-62
2021/08/10 09:07:11;;;;;;;11.02;5.13;;;;;;;19.10;100.00;101482.25;3591278;39;20077;-61
2021/08/10 09:09:38;;;;;;;8.48;5.18;;;;;;;18.69;100.00;101487.81;3587170;39;20055;-62
2021/08/10 09:12:10;;;;;;;8.48;5.70;;;;;;;18.33;100.00;101477.28;3591503;39;20028;-61
2021/08/10 09:14:45;;;;;;;8.48;5.78;;;;;;;18.18;100.00;101485.31;3588496;39;20080;-61
2021/08/10 09:17:14;;;;;;;7.57;4.90;;;;;;;18.33;100.00;101488.19;3587627;39;20291;-61
2021/08/10 09:19:44;;;;;;;11.48;5.38;;;;;;;18.22;100.00;101486.69;3587753;39;20398;-61
2021/08/10 09:22:20;;;;;;;9.07;5.22;;;;;;;18.55;100.00;101484.78;3591610;39;20044;-61
2021/08/10 09:24:48;;;;;;;11.60;5.20;;;;;;;18.48;100.00;101486.50;3593980;39;20043;-61
2021/08/10 09:27:26;;;;;;;8.55;4.30;;;;;;;19.21;100.00;101484.59;3591102;39;20353;-61
2021/08/10 09:29:53;;;;;;;7.47;4.15;;;;;;;19.13;100.00;101483.78;3592716;39;20413;-62
2021/08/10 09:32:19;;;;;;;10.82;4.90;;;;;;;19.08;100.00;101492.50;3590073;39;20033;-61
2021/08/10 09:34:47;;;;;;;10.30;4.50;;;;;;;18.73;100.00;101487.28;3591513;39;20068;-62
2021/08/10 09:37:17;;;;;;;9.13;4.72;;;;;;;19.22;100.00;101485.44;3589891;39;20033;-61
2021/08/10 09:39:44;;;;;;;7.32;4.70;;;;;;;19.14;100.00;101488.19;3581257;40;20060;-62
2021/08/10 09:42:12;;;;;;;7.80;4.82;;;;;;;19.14;100.00;101499.09;3578995;40;20056;-62
2021/08/10 09:44:59;;;;;;;6.67;5.20;;;;;;;18.86;100.00;101497.69;3578946;40;20049;-62
2021/08/10 09:47:30;;;;;;;12.60;6.03;;;;;;;19.00;100.00;101503.44;3581481;40;20395;-61
2021/08/10 09:49:59;;;;;;;8.25;6.25;;;;;;;18.63;100.00;101507.59;3582864;40;20380;-61
2021/08/10 09:52:27;;;;;;;10.57;5.45;;;;;;;18.95;100.00;101503.09;3581510;40;20078;-62
2021/08/10 09:54:54;;;;;;;9.60;5.43;;;;;;;18.76;100.00;101509.75;3583775;40;20036;-61
2021/08/10 09:57:20;;;;;;;9.85;6.15;;;;;;;18.73;100.00;101506.38;3581215;40;20033;-61
2021/08/10 09:59:47;;;;;;;8.90;5.53;;;;;;;19.01;100.00;101502.41;3579514;40;20053;-62
2021/08/10 10:02:18;;;;;;;9.13;5.90;;;;;;;18.35;100.00;101503.38;3579592;40;20045;-62
2021/08/10 10:04:49;;;;;;;8.55;5.82;;;;;;;18.43;100.00;101501.66;3579124;40;20045;-61
2021/08/10 10:07:18;;;;;;;6.65;5.60;;;;;;;18.49;100.00;101509.13;3579530;40;20025;-62
2021/08/10 10:09:45;;;;;;;10.10;5.13;;;;;;;18.44;100.00;101509.66;3578655;40;20392;-61
2021/08/10 10:12:12;;;;;;;9.18;5.75;;;;;;;18.62;100.00;101511.34;3580066;40;20259;-61
2021/08/10 10:14:39;;;;;;;10.10;5.20;;;;;;;19.06;100.00;101509.00;3579119;40;20041;-61
2021/08/10 10:17:08;;;;;;;7.38;5.22;;;;;;;19.07;100.00;101504.44;3578143;40;20114;-61
2021/08/10 10:19:36;;;;;;;6.65;4.07;;;;;;;19.08;100.00;101506.13;3579086;40;20053;-61
2021/08/10 10:22:05;;;;;;;9.05;4.30;;;;;;;19.16;100.00;101505.25;3578139;40;20041;-61
2021/08/10 10:24:40;;;;;;;7.20;4.03;;;;;;;19.04;100.00;101494.72;3581251;40;20431;-61
2021/08/10 10:27:08;;;;;;;6.32;4.43;;;;;;;18.73;100.00;101495.47;3581765;40;20053;-61
2021/08/10 10:29:35;;;;;;;9.90;4.90;;;;;;;18.36;100.00;101502.34;3582049;40;20039;-61
2021/08/10 10:32:02;;;;;;;8.50;4.47;;;;;;;18.34;100.00;101503.53;3580868;40;20043;-61
2021/08/10 10:34:29;;;;;;;6.45;4.05;;;;;;;18.30;100.00;101511.22;3580651;40;20080;-61
2021/08/10 10:36:57;;;;;;;6.57;3.63;;;;;;;18.51;100.00;101505.22;3580182;40;20070;-61
2021/08/10 10:39:27;;;;;;;6.03;3.47;;;;;;;18.49;100.00;101504.56;3579224;40;20048;-61
2021/08/10 10:41:58;;;;;;;5.55;3.70;;;;;;;18.76;100.00;101505.19;3579130;40;20076;-61
2021/08/10 10:44:36;;;;;;;6.43;3.35;;;;;;;18.72;100.00;101503.81;3577891;40;20047;-61
2021/08/10 10:47:33;;;;;;;7.70;3.65;;;;;;;18.64;100.00;101509.28;3578156;40;20384;-61
2021/08/10 10:50:18;;;;;;;7.30;3.80;;;;;;;18.42;100.00;101500.81;3583498;40;20092;-61
2021/08/10 10:53:03;;;;;;;5.35;3.50;;;;;;;18.81;100.00;101500.03;3580494;40;20057;-61
2021/08/10 10:55:44;;;;;;;5.38;3.88;;;;;;;19.05;100.00;101498.28;3580217;40;20036;-60
2021/08/10 11:01:31;;;;;;;7.78;4.53;;;;;;;19.73;100.00;101488.53;3657098;22;20040;-60
2021/08/10 11:04:12;;;;;;;6.93;4.30;;;;;;;19.70;100.00;101485.31;3567111;40;20406;-61
2021/08/10 11:06:46;;;;;;;7.88;4.00;;;;;;;19.63;100.00;101492.56;3591823;40;20056;-62
2021/08/10 11:09:59;;;;;;;5.88;4.60;;;;;;;19.73;100.00;101487.72;3588936;40;20178;-61
2021/08/10 11:12:43;;;;;;;7.32;4.57;;;;;;;20.12;100.00;101482.09;3588617;40;20089;-61
2021/08/10 11:15:15;;;;;;;8.35;3.80;;;;;;;20.66;100.00;101488.47;3584202;39;20048;-61
2021/08/10 11:18:22;;;;;;;5.32;3.67;;;;;;;21.03;100.00;101480.38;3589403;40;20063;-61
2021/08/10 11:20:52;;;;;;;5.70;4.22;;;;;;;21.64;100.00;101474.56;3589448;40;20059;-61
2021/08/10 11:23:32;;;;;;;9.77;4.90;;;;;;;21.07;100.00;101478.91;3592611;40;20040;-61
2021/08/10 11:26:31;;;;;;;8.88;4.32;;;;;;;21.75;100.00;101473.22;3591710;40;20040;-62
2021/08/10 11:28:58;;;;;;;7.15;4.20;;;;;;;21.28;100.00;101469.94;3591039;39;20322;-61